MDT,Max TemperatureF,Mean TemperatureF,Min TemperatureF,Max Dew PointF,MeanDew PointF,Min DewpointF,Max Humidity, Mean Humidity, Min Humidity, Max Sea Level PressureIn, Mean Sea Level PressureIn, Min Sea Level PressureIn, Max VisibilityMiles, Mean VisibilityMiles, Min VisibilityMiles, Max Wind SpeedMPH, Mean Wind SpeedMPH, Max Gust SpeedMPH,PrecipitationIn, CloudCover, Events, WindDirDegrees
2013-8-1,97,82,67,61,57,50,81,53,24,30.02,29.91,29.77,10,10,7,38,10,47,T,1,Rain,203
2013-8-2,98,83,68,63,54,45,58,38,17,29.88,29.76,29.72,10,10,10,23,12,31,0.00,0,,343
2013-8-3,84,75,65,69,66,61,93,76,58,30.23,30.04,29.85,10,9,3,25,12,30,0.10,6,Rain,92
2013-8-4,90,78,65,67,62,56,93,66,38,30.23,30.01,29.87,10,10,6,22,5,29,0.08,2,Rain,167
2013-8-5,95,82,68,67,57,49,74,48,22,30.00,29.84,29.75,10,10,10,28,7,32,0.02,0,,179
2013-8-6,98,84,70,66,55,44,84,51,17,29.84,29.78,29.70,10,10,8,22,6,25,0.00,1,,293
2013-8-7,84,73,62,64,60,53,93,70,47,30.10,29.92,29.81,10,9,2,28,12,35,0.01,5,Rain,38
2013-8-8,72,67,62,64,61,59,93,81,68,30.12,30.02,29.86,10,10,2,22,5,26,0.00,7,Rain,43
2013-8-9,80,70,60,60,57,52,97,68,39,30.23,30.11,30.03,10,10,7,22,8,25,0.00,3,Rain,53
2013-8-10,88,73,58,60,57,52,93,61,29,30.22,30.06,29.92,10,9,6,25,9,30,0.00,1,,118
2013-8-11,90,77,63,56,49,40,73,45,17,30.18,29.96,29.86,10,10,10,33,8,39,0.00,0,,285
2013-8-12,89,76,62,56,53,49,73,51,29,30.14,29.99,29.92,10,10,10,33,9,40,0.00,0,,253
2013-8-13,86,72,58,58,55,52,87,60,32,30.07,30.03,29.97,10,10,10,18,8,26,0.00,0,,118
2013-8-14,88,74,60,59,56,43,90,56,21,30.20,30.01,29.91,10,10,6,22,6,25,T,1,Rain,144
2013-8-15,92,75,58,61,55,44,93,57,20,30.02,29.95,29.88,10,10,7,18,7,23,0.00,0,,112
2013-8-16,95,78,60,62,55,40,90,53,15,29.99,29.94,29.89,10,10,8,13,5,17,0.00,0,,129
2013-8-17,95,78,60,64,58,51,100,62,24,30.15,29.96,29.84,10,8,0,21,9,24,0.00,2,Fog,81
2013-8-18,97,80,62,64,58,46,100,60,19,30.15,29.97,29.81,10,7,0,29,8,44,T,5,Fog-Rain,79
2013-8-19,96,79,62,62,56,45,87,53,18,29.94,29.88,29.82,10,10,10,17,6,22,0.00,0,,137
2013-8-20,98,81,64,62,53,37,81,47,13,29.88,29.82,29.75,10,10,10,18,8,23,0.00,0,,190
2013-8-21,100,82,63,57,48,41,67,41,14,30.04,29.82,29.76,10,10,10,24,9,28,0.00,0,,279
2013-8-22,93,81,69,64,57,47,68,49,30,29.99,29.90,29.84,10,10,10,26,10,32,T,1,,358
2013-8-23,98,82,66,59,50,41,73,44,15,30.18,29.87,29.75,10,10,10,23,11,33,0.00,1,,193
2013-8-24,98,85,71,52,48,42,49,33,16,29.89,29.82,29.76,10,10,10,25,13,38,0.00,0,,191
2013-8-25,97,84,71,53,50,46,49,34,18,29.96,29.91,29.85,10,10,10,24,12,30,0.00,1,,205
2013-8-26,99,85,71,53,49,41,46,31,15,29.96,29.89,29.81,10,10,10,23,12,30,0.00,0,,196
2013-8-27,99,84,68,53,47,36,55,33,11,29.91,29.84,29.78,10,10,10,16,8,28,0.00,0,,173
2013-8-28,98,81,63,51,45,37,52,33,13,29.91,29.85,29.80,10,10,10,16,6,23,0.00,0,,159
2013-8-29,101,82,62,49,41,33,56,33,10,29.93,29.88,29.84,10,10,10,16,7,21,0.00,0,,200
2013-8-30,101,83,64,49,43,37,48,30,11,29.95,29.88,29.81,10,10,10,16,7,30,0.00,0,,167
2013-8-31,98,83,68,63,52,44,78,47,16,30.02,29.84,29.73,10,10,4,39,8,46,T,0,,49